createdAt,value
2019-02-03T00:00:57.885Z,20.12
2019-02-03T00:03:31.504Z,19.23
2019-02-03T00:06:05.130Z,17.75
2019-02-03T00:08:38.739Z,18.58
2019-02-03T00:11:12.348Z,19.85
2019-02-03T00:13:46.015Z,18.58
2019-02-03T00:16:19.624Z,20.10
2019-02-03T00:18:53.249Z,18.12
2019-02-03T00:21:26.888Z,19.55
2019-02-03T00:24:00.683Z,19.70
2019-02-03T00:26:34.424Z,18.45
2019-02-03T00:29:08.836Z,18.55
2019-02-03T00:31:42.680Z,18.42
2019-02-03T00:34:16.396Z,19.33
2019-02-03T00:36:50.912Z,18.52
2019-02-03T00:39:24.618Z,18.02
2019-02-03T00:41:58.321Z,17.87
2019-02-03T00:44:31.896Z,18.00
2019-02-03T00:47:05.467Z,17.65
2019-02-03T00:49:39.096Z,17.52
2019-02-03T00:52:12.776Z,17.58
2019-02-03T00:54:47.133Z,16.90
2019-02-03T00:57:21.617Z,17.87
2019-02-03T00:59:55.298Z,16.30
2019-02-03T01:02:29.056Z,17.83
2019-02-03T01:05:02.692Z,17.90
2019-02-03T01:07:37.112Z,18.98
2019-02-03T01:10:15.231Z,19.35
2019-02-03T01:12:48.908Z,18.30
2019-02-03T01:15:23.310Z,18.17
2019-02-03T01:17:57.746Z,17.90
2019-02-03T01:20:31.336Z,17.83
2019-02-03T01:23:04.940Z,15.60
2019-02-03T01:25:38.519Z,17.20
2019-02-03T01:28:12.076Z,17.12
2019-02-03T01:30:45.668Z,16.42
2019-02-03T01:33:19.421Z,16.85
2019-02-03T01:35:53.158Z,17.10
2019-02-03T01:38:26.883Z,18.98
2019-02-03T01:41:00.500Z,18.20
2019-02-03T01:43:34.292Z,19.02
2019-02-03T01:46:08.033Z,15.93
2019-02-03T01:48:41.602Z,16.27
2019-02-03T01:51:15.359Z,13.23
2019-02-03T01:53:49.099Z,17.85
2019-02-03T01:56:22.781Z,14.70
2019-02-03T01:58:56.627Z,15.82
2019-02-03T02:01:30.511Z,17.65
2019-02-03T02:04:04.239Z,15.30
2019-02-03T02:06:38.604Z,14.87
2019-02-03T02:09:12.207Z,17.20
2019-02-03T02:11:46.648Z,16.70
2019-02-03T02:14:20.371Z,15.40
2019-02-03T02:16:54.857Z,15.15
2019-02-03T02:19:28.550Z,15.63
2019-02-03T02:22:02.145Z,15.30
2019-02-03T02:24:35.762Z,13.52
2019-02-03T02:27:09.354Z,14.27
2019-02-03T02:29:42.959Z,14.30
2019-02-03T02:32:17.301Z,14.52
2019-02-03T02:34:51.674Z,15.43
2019-02-03T02:37:25.566Z,13.45
2019-02-03T02:40:11.876Z,14.93
2019-02-03T02:42:33.632Z,12.85
2019-02-03T02:45:07.500Z,13.85
2019-02-03T02:47:41.276Z,12.48
2019-02-03T02:50:31.166Z,13.98
2019-02-03T02:53:04.956Z,13.55
2019-02-03T02:55:38.539Z,12.25
2019-02-03T02:58:12.867Z,13.35
2019-02-03T03:00:46.472Z,11.63
2019-02-03T03:03:20.166Z,14.07
2019-02-03T03:05:53.840Z,12.52
2019-02-03T03:08:27.966Z,11.40
2019-02-03T03:11:02.677Z,9.70
2019-02-03T03:13:37.100Z,11.80
2019-02-03T03:16:10.751Z,11.65
2019-02-03T03:18:44.475Z,11.02
2019-02-03T03:21:18.243Z,12.68
2019-02-03T03:23:51.819Z,11.27
2019-02-03T03:26:25.675Z,12.10
2019-02-03T03:28:59.275Z,10.85
2019-02-03T03:31:33.909Z,11.65
2019-02-03T03:34:07.543Z,13.15
2019-02-03T03:36:41.185Z,12.20
2019-02-03T03:39:15.664Z,13.93
2019-02-03T03:41:49.187Z,14.40
2019-02-03T03:44:22.967Z,11.00
2019-02-03T03:46:56.505Z,12.45
2019-02-03T03:49:30.300Z,12.00
2019-02-03T03:52:03.923Z,12.07
2019-02-03T03:54:37.746Z,11.40
2019-02-03T03:57:11.302Z,9.38
2019-02-03T03:59:45.143Z,11.23
2019-02-03T04:02:18.791Z,13.05
2019-02-03T04:04:52.397Z,10.50
2019-02-03T04:07:26.012Z,14.38
2019-02-03T04:10:00.346Z,12.93
2019-02-03T04:12:33.875Z,9.80
2019-02-03T04:15:07.675Z,11.68
2019-02-03T04:17:42.162Z,11.50
2019-02-03T04:20:20.335Z,10.93
2019-02-03T04:22:53.998Z,11.10
2019-02-03T04:25:27.568Z,11.15
2019-02-03T04:28:01.155Z,13.57
2019-02-03T04:30:34.780Z,12.40
2019-02-03T04:33:08.473Z,13.27
2019-02-03T04:35:42.242Z,12.07
2019-02-03T04:38:15.806Z,10.80
2019-02-03T04:40:49.486Z,12.57
2019-02-03T04:43:23.283Z,13.20
2019-02-03T04:45:56.915Z,10.73
2019-02-03T04:48:30.621Z,10.95
2019-02-03T04:51:04.293Z,10.30
2019-02-03T04:53:38.081Z,12.10
2019-02-03T04:56:11.832Z,9.05
2019-02-03T04:58:47.133Z,11.57
2019-02-03T05:01:25.497Z,10.60
2019-02-03T05:04:00.644Z,10.13
2019-02-03T05:06:35.358Z,10.82
2019-02-03T05:09:11.391Z,11.00
2019-02-03T05:11:44.604Z,11.70
2019-02-03T05:14:18.300Z,7.37
2019-02-03T05:16:51.839Z,12.55
2019-02-03T05:19:26.328Z,12.77
2019-02-03T05:21:59.993Z,9.93
2019-02-03T05:24:33.563Z,11.65
2019-02-03T05:27:07.220Z,9.88
2019-02-03T05:29:41.628Z,10.18
2019-02-03T05:32:16.177Z,10.27
2019-02-03T05:34:49.961Z,8.70
2019-02-03T05:37:23.493Z,8.85
2019-02-03T05:39:57.196Z,11.20
2019-02-03T05:42:31.572Z,12.10
2019-02-03T05:45:06.860Z,12.45
2019-02-03T05:47:40.621Z,12.07
2019-02-03T05:50:14.627Z,12.52
2019-02-03T05:52:48.370Z,10.60
2019-02-03T05:55:21.973Z,7.45
2019-02-03T05:57:55.577Z,12.20
2019-02-03T06:00:30.106Z,11.07
2019-02-03T06:03:03.781Z,12.00
2019-02-03T06:05:38.107Z,12.70
2019-02-03T06:08:11.895Z,12.20
2019-02-03T06:10:45.664Z,10.55
2019-02-03T06:13:19.230Z,10.27
2019-02-03T06:15:52.917Z,12.05
2019-02-03T06:18:26.520Z,12.65
2019-02-03T06:21:00.927Z,13.93
2019-02-03T06:23:34.688Z,11.27
2019-02-03T06:26:08.355Z,13.77
2019-02-03T06:28:41.960Z,13.55
2019-02-03T06:31:15.517Z,14.95
2019-02-03T06:33:49.149Z,14.00
2019-02-03T06:36:22.920Z,12.23
2019-02-03T06:38:56.542Z,12.48
2019-02-03T06:41:30.881Z,12.20
2019-02-03T06:44:04.479Z,11.93
2019-02-03T06:46:38.646Z,14.00
2019-02-03T06:49:12.307Z,12.13
2019-02-03T06:51:45.899Z,13.48
2019-02-03T06:54:20.540Z,15.85
2019-02-03T06:56:54.134Z,13.82
2019-02-03T06:59:27.735Z,13.02
2019-02-03T07:02:01.352Z,14.35
2019-02-03T07:04:35.837Z,14.30
2019-02-03T07:07:09.426Z,14.52
2019-02-03T07:09:43.748Z,14.65
2019-02-03T07:12:18.189Z,13.75
2019-02-03T07:14:51.796Z,15.88
2019-02-03T07:17:25.358Z,14.25
2019-02-03T07:19:58.979Z,19.08
2019-02-03T07:22:32.695Z,15.70
2019-02-03T07:25:06.150Z,15.65
2019-02-03T07:27:40.396Z,15.23
2019-02-03T07:30:18.525Z,15.32
2019-02-03T07:32:52.244Z,15.70
2019-02-03T07:35:25.852Z,13.98
2019-02-03T07:37:59.519Z,16.80
2019-02-03T07:40:33.107Z,16.33
2019-02-03T07:43:06.915Z,16.35
2019-02-03T07:45:40.668Z,15.45
2019-02-03T07:48:14.461Z,17.83
2019-02-03T07:50:48.135Z,16.73
2019-02-03T07:53:22.497Z,17.48
2019-02-03T07:55:56.157Z,17.25
2019-02-03T07:58:29.915Z,15.50
2019-02-03T08:01:04.268Z,18.58
2019-02-03T08:03:37.900Z,17.02
2019-02-03T08:06:11.493Z,16.40
2019-02-03T08:08:45.100Z,16.67
2019-02-03T08:11:18.819Z,16.23
2019-02-03T08:13:53.333Z,17.17
2019-02-03T08:16:27.846Z,16.52
2019-02-03T08:19:01.472Z,17.40
2019-02-03T08:21:35.100Z,18.17
2019-02-03T08:24:08.653Z,18.45
2019-02-03T08:26:42.246Z,17.45
2019-02-03T08:29:15.987Z,13.98
2019-02-03T08:31:49.663Z,21.35
2019-02-03T08:34:23.235Z,15.02
2019-02-03T08:36:56.863Z,16.35
2019-02-03T08:39:30.566Z,16.92
2019-02-03T08:42:04.158Z,19.75
2019-02-03T08:44:38.663Z,18.27
2019-02-03T08:47:12.309Z,15.43
2019-02-03T08:49:46.048Z,19.12
2019-02-03T08:52:19.617Z,19.62
2019-02-03T08:54:58.260Z,15.93
2019-02-03T08:57:27.961Z,15.15
2019-02-03T09:00:01.625Z,18.12
2019-02-03T09:02:35.340Z,21.05
2019-02-03T09:05:09.981Z,18.15
2019-02-03T09:07:43.539Z,16.65
2019-02-03T09:10:21.060Z,18.48
2019-02-03T09:12:54.731Z,16.25
2019-02-03T09:15:29.064Z,18.35
2019-02-03T09:18:02.594Z,19.27
2019-02-03T09:20:36.200Z,19.02
2019-02-03T09:23:09.802Z,21.00
2019-02-03T09:25:44.268Z,19.58
2019-02-03T09:28:17.931Z,16.17
2019-02-03T09:30:51.711Z,17.00
2019-02-03T09:33:25.285Z,15.43
2019-02-03T09:35:59.152Z,14.60
2019-02-03T09:38:32.893Z,13.25
2019-02-03T09:41:07.243Z,14.07
2019-02-03T09:43:41.785Z,16.08
2019-02-03T09:46:16.274Z,15.93
2019-02-03T09:48:49.863Z,19.85
2019-02-03T09:51:23.472Z,15.85
2019-02-03T09:53:57.151Z,15.85
2019-02-03T09:56:30.787Z,15.27
2019-02-03T09:59:04.282Z,15.48
2019-02-03T10:01:38.004Z,16.05
2019-02-03T10:04:11.664Z,13.55
2019-02-03T10:06:45.323Z,16.15
2019-02-03T10:09:19.131Z,9.02
2019-02-03T10:11:52.799Z,11.10
2019-02-03T10:14:26.441Z,13.40
2019-02-03T10:16:59.995Z,12.85
2019-02-03T10:19:33.740Z,11.77
2019-02-03T10:22:07.299Z,12.32
2019-02-03T10:24:42.141Z,14.27
2019-02-03T10:27:14.732Z,12.85
2019-02-03T10:29:48.490Z,10.85
2019-02-03T10:32:22.022Z,12.57
2019-02-03T10:34:55.624Z,11.55
2019-02-03T10:37:29.944Z,10.25
2019-02-03T10:40:03.494Z,10.73
2019-02-03T10:42:37.055Z,11.60
2019-02-03T10:45:11.702Z,11.75
2019-02-03T10:47:45.266Z,11.52
2019-02-03T10:50:22.637Z,10.52
2019-02-03T10:52:56.277Z,13.13
2019-02-03T10:55:29.971Z,12.18
2019-02-03T10:58:04.288Z,13.50
2019-02-03T11:00:37.868Z,12.80
2019-02-03T11:03:11.464Z,10.65
2019-02-03T11:05:46.136Z,10.00
2019-02-03T11:08:19.737Z,8.65
2019-02-03T11:10:53.390Z,10.00
2019-02-03T11:13:27.020Z,7.65
2019-02-03T11:16:00.564Z,7.72
2019-02-03T11:18:34.399Z,8.18
2019-02-03T11:21:08.173Z,8.13
2019-02-03T11:23:41.704Z,8.40
2019-02-03T11:26:15.452Z,9.35
2019-02-03T11:28:49.935Z,8.65
2019-02-03T11:31:24.301Z,7.32
2019-02-03T11:33:57.894Z,8.43
2019-02-03T11:36:32.223Z,6.95
2019-02-03T11:39:06.600Z,6.12
2019-02-03T11:41:48.862Z,7.68
2019-02-03T11:44:14.208Z,7.82
2019-02-03T11:46:48.761Z,10.38
2019-02-03T11:49:22.355Z,9.75
2019-02-03T11:51:56.000Z,9.95
2019-02-03T11:54:29.574Z,9.02
2019-02-03T11:57:03.131Z,9.18
2019-02-03T11:59:36.735Z,9.05
2019-02-03T12:02:10.325Z,9.05
2019-02-03T12:04:43.978Z,7.43
2019-02-03T12:07:17.699Z,10.95
2019-02-03T12:09:51.347Z,5.80
2019-02-03T12:12:25.774Z,9.02
2019-02-03T12:14:59.507Z,10.25
2019-02-03T12:17:33.169Z,7.62
2019-02-03T12:20:07.645Z,5.97
2019-02-03T12:22:41.388Z,9.02
2019-02-03T12:25:15.750Z,10.27
2019-02-03T12:27:49.573Z,6.45
2019-02-03T12:30:25.867Z,6.82
2019-02-03T12:32:59.575Z,6.65
2019-02-03T12:35:34.147Z,7.95
2019-02-03T12:38:07.816Z,8.40
2019-02-03T12:40:42.360Z,8.35
2019-02-03T12:43:16.643Z,8.70
2019-02-03T12:45:50.183Z,8.73
2019-02-03T12:48:23.941Z,10.57
2019-02-03T12:50:57.519Z,8.80
2019-02-03T12:53:31.386Z,10.10
2019-02-03T12:56:04.922Z,9.25
2019-02-03T12:58:39.520Z,11.35
2019-02-03T13:01:13.267Z,7.85
2019-02-03T13:03:46.863Z,8.88
2019-02-03T13:06:20.746Z,10.07
2019-02-03T13:08:54.506Z,8.90
2019-02-03T13:11:29.024Z,9.85
2019-02-03T13:14:02.883Z,9.52
2019-02-03T13:16:36.468Z,8.15
2019-02-03T13:19:10.196Z,7.05
2019-02-03T13:21:43.815Z,9.52
2019-02-03T13:24:18.708Z,8.68
2019-02-03T13:26:50.971Z,7.97
2019-02-03T13:29:24.509Z,7.87
2019-02-03T13:32:10.141Z,8.90
2019-02-03T13:34:31.921Z,7.55
2019-02-03T13:37:05.588Z,11.00
2019-02-03T13:39:39.932Z,10.45
2019-02-03T13:42:13.640Z,11.73
2019-02-03T13:44:48.234Z,9.32
2019-02-03T13:47:21.795Z,9.27
2019-02-03T13:49:55.284Z,10.45
2019-02-03T13:52:28.927Z,9.57
2019-02-03T13:55:02.703Z,9.48
2019-02-03T13:57:36.419Z,10.25
2019-02-03T14:13:30.748Z,14.40
2019-02-03T14:16:04.974Z,11.52
2019-02-03T14:18:39.544Z,11.88
2019-02-03T14:21:13.266Z,12.07
2019-02-03T14:23:46.854Z,10.63
2019-02-03T14:26:20.467Z,12.37
2019-02-03T14:28:54.365Z,10.35
2019-02-03T14:31:28.195Z,10.30
2019-02-03T14:34:01.872Z,10.77
2019-02-03T14:36:35.433Z,10.68
2019-02-03T14:39:09.075Z,10.80
2019-02-03T14:41:42.690Z,10.98
2019-02-03T14:44:16.279Z,11.40
2019-02-03T14:46:50.700Z,11.77
2019-02-03T14:49:24.700Z,9.82
2019-02-03T14:51:58.483Z,12.37
2019-02-03T14:54:32.091Z,12.63
2019-02-03T14:57:05.728Z,11.45
2019-02-03T14:59:39.431Z,11.02
2019-02-03T15:02:13.236Z,13.77
2019-02-03T15:04:46.835Z,11.12
2019-02-03T15:07:20.416Z,11.73
2019-02-03T15:09:54.130Z,11.73
2019-02-03T15:12:27.843Z,11.02
2019-02-03T15:15:01.590Z,13.30
2019-02-03T15:17:35.173Z,10.40
2019-02-03T15:20:08.783Z,11.88
2019-02-03T15:22:42.431Z,11.73
2019-02-03T15:25:16.017Z,9.80
2019-02-03T15:27:49.656Z,11.88
2019-02-03T15:30:25.912Z,12.88
2019-02-03T15:32:59.443Z,13.73
2019-02-03T15:35:33.938Z,11.23
2019-02-03T15:38:07.665Z,10.50
2019-02-03T15:40:41.222Z,12.00
2019-02-03T15:43:24.975Z,10.73
2019-02-03T15:45:48.579Z,12.77
2019-02-03T15:48:22.388Z,11.38
2019-02-03T15:50:55.912Z,11.60
2019-02-03T15:53:29.837Z,11.75
2019-02-03T15:56:03.596Z,13.43
2019-02-03T15:58:37.910Z,12.60
2019-02-03T16:01:11.570Z,13.32
2019-02-03T16:03:45.316Z,11.70
2019-02-03T16:06:18.917Z,12.40
2019-02-03T16:08:52.726Z,11.50
2019-02-03T16:11:26.295Z,11.68
2019-02-03T16:13:59.833Z,11.57
2019-02-03T16:16:33.444Z,14.80
2019-02-03T16:19:07.207Z,14.52
2019-02-03T16:21:41.029Z,13.30
2019-02-03T16:24:14.781Z,12.35
2019-02-03T16:26:48.572Z,13.02
2019-02-03T16:29:22.219Z,12.70
2019-02-03T16:31:55.817Z,12.93
2019-02-03T16:34:30.259Z,12.48
2019-02-03T16:37:04.795Z,10.32
2019-02-03T16:39:38.507Z,12.50
2019-02-03T16:42:12.115Z,11.50
2019-02-03T16:44:45.920Z,12.30
2019-02-03T16:47:19.643Z,11.02
2019-02-03T16:49:53.423Z,14.00
2019-02-03T16:52:27.090Z,11.60
2019-02-03T16:55:01.413Z,13.95
2019-02-03T16:57:35.025Z,12.80
2019-02-03T17:00:08.743Z,12.00
2019-02-03T17:02:42.530Z,11.73
2019-02-03T17:05:25.183Z,10.65
2019-02-03T17:07:50.139Z,14.80
2019-02-03T17:10:24.587Z,14.02
2019-02-03T17:12:59.032Z,11.90
2019-02-03T17:15:42.161Z,12.68
2019-02-03T17:18:15.923Z,11.25
2019-02-03T17:21:01.289Z,10.15
2019-02-03T17:23:24.205Z,10.48
2019-02-03T17:25:57.977Z,10.85
2019-02-03T17:28:31.741Z,10.48
2019-02-03T17:31:05.447Z,10.00
2019-02-03T17:33:39.545Z,12.45
2019-02-03T17:36:14.088Z,9.35
2019-02-03T17:38:48.512Z,9.50
2019-02-03T17:41:22.037Z,11.43
2019-02-03T17:43:55.611Z,9.93
2019-02-03T17:46:29.948Z,12.07
2019-02-03T17:49:03.616Z,9.30
2019-02-03T17:51:37.319Z,9.70
2019-02-03T17:54:10.881Z,10.70
2019-02-03T17:56:45.245Z,10.70
2019-02-03T17:59:19.056Z,10.20
2019-02-03T18:01:52.573Z,9.57
2019-02-03T18:04:26.179Z,10.10
2019-02-03T18:06:59.746Z,10.95
2019-02-03T18:09:33.514Z,10.70
2019-02-03T18:12:07.275Z,9.27
2019-02-03T18:14:41.079Z,9.40
2019-02-03T18:17:14.880Z,9.43
2019-02-03T18:19:48.399Z,8.02
2019-02-03T18:22:22.087Z,8.70
2019-02-03T18:24:55.641Z,7.25
2019-02-03T18:27:29.237Z,7.97
2019-02-03T18:30:02.997Z,10.18
2019-02-03T18:32:36.563Z,9.25
2019-02-03T18:35:11.133Z,8.45
2019-02-03T18:37:45.463Z,10.55
2019-02-03T18:40:19.964Z,7.85
2019-02-03T18:42:53.805Z,9.35
2019-02-03T18:45:27.485Z,9.02
2019-02-03T18:48:01.164Z,8.90
2019-02-03T18:50:34.767Z,8.40
2019-02-03T18:53:08.466Z,7.47
2019-02-03T18:55:42.919Z,7.95
2019-02-03T18:58:16.770Z,8.77
2019-02-03T19:00:50.371Z,9.93
2019-02-03T19:03:24.017Z,7.15
2019-02-03T19:05:58.601Z,8.50
2019-02-03T19:08:32.211Z,9.07
2019-02-03T19:11:06.687Z,8.85
2019-02-03T19:13:41.271Z,8.52
2019-02-03T19:16:14.954Z,9.45
2019-02-03T19:18:48.571Z,7.87
2019-02-03T19:21:23.094Z,9.48
2019-02-03T19:23:56.653Z,8.45
2019-02-03T19:26:30.431Z,7.82
2019-02-03T19:29:04.423Z,10.30
2019-02-03T19:31:38.043Z,8.10
2019-02-03T19:34:11.791Z,7.25
2019-02-03T19:36:45.458Z,6.53
2019-02-03T19:39:19.952Z,7.30
2019-02-03T19:41:53.540Z,7.82
2019-02-03T19:44:27.126Z,6.47
2019-02-03T19:47:01.600Z,8.60
2019-02-03T19:49:45.956Z,6.82
2019-02-03T19:52:08.965Z,7.03
2019-02-03T19:54:42.742Z,5.55
2019-02-03T19:57:16.406Z,6.47
2019-02-03T19:59:50.059Z,6.43
2019-02-03T20:02:23.620Z,6.85
2019-02-03T20:04:57.355Z,6.35
2019-02-03T20:07:31.075Z,5.22
2019-02-03T20:10:23.182Z,4.60
2019-02-03T20:12:56.819Z,5.55
2019-02-03T20:15:30.432Z,5.47
2019-02-03T20:18:04.034Z,5.07
2019-02-03T20:20:37.630Z,5.93
2019-02-03T20:23:11.222Z,6.03
2019-02-03T20:25:45.022Z,5.22
2019-02-03T20:28:18.773Z,5.35
2019-02-03T20:30:52.369Z,5.95
2019-02-03T20:33:26.128Z,5.22
2019-02-03T20:35:59.826Z,4.70
2019-02-03T20:38:33.537Z,5.50
2019-02-03T20:41:07.163Z,5.90
2019-02-03T20:43:40.773Z,5.87
2019-02-03T20:46:14.945Z,4.75
2019-02-03T20:48:48.728Z,5.60
2019-02-03T20:51:22.609Z,5.18
2019-02-03T20:53:56.343Z,5.15
2019-02-03T20:56:30.111Z,5.65
2019-02-03T20:59:03.976Z,5.60
2019-02-03T21:01:38.338Z,5.03
2019-02-03T21:04:12.675Z,4.78
2019-02-03T21:06:46.458Z,5.60
2019-02-03T21:09:20.222Z,4.25
2019-02-03T21:11:53.963Z,5.22
2019-02-03T21:14:27.846Z,4.90
2019-02-03T21:17:01.552Z,5.18
2019-02-03T21:19:35.228Z,4.90
2019-02-03T21:22:09.032Z,4.25
2019-02-03T21:24:42.822Z,5.05
2019-02-03T21:27:16.508Z,4.72
2019-02-03T21:29:50.249Z,4.40
2019-02-03T21:32:24.603Z,4.68
2019-02-03T21:34:58.270Z,4.00
2019-02-03T21:37:31.834Z,4.07
2019-02-03T21:40:06.328Z,4.40
2019-02-03T21:42:40.990Z,4.50
2019-02-03T21:45:14.637Z,3.92
2019-02-03T21:47:48.964Z,4.30
2019-02-03T21:50:23.298Z,4.50
2019-02-03T21:52:57.043Z,3.37
2019-02-03T21:55:30.687Z,4.95
2019-02-03T21:58:05.255Z,3.90
2019-02-03T22:00:39.026Z,3.72
2019-02-03T22:03:12.670Z,3.80
2019-02-03T22:05:46.276Z,4.80
2019-02-03T22:08:20.052Z,4.80
2019-02-03T22:10:53.786Z,4.78
2019-02-03T22:13:27.463Z,4.30
2019-02-03T22:16:01.035Z,4.62
2019-02-03T22:18:34.658Z,3.05
2019-02-03T22:21:08.394Z,4.55
2019-02-03T22:23:41.983Z,4.47
2019-02-03T22:26:15.517Z,4.18
2019-02-03T22:28:49.190Z,3.62
2019-02-03T22:31:23.707Z,4.20
2019-02-03T22:33:57.500Z,4.70
2019-02-03T22:36:31.220Z,3.70
2019-02-03T22:39:05.632Z,4.47
2019-02-03T22:41:39.303Z,3.50
2019-02-03T22:44:12.958Z,4.18
2019-02-03T22:46:46.617Z,4.25
2019-02-03T22:49:20.471Z,3.25
2019-02-03T22:51:54.061Z,3.92
2019-02-03T22:54:28.673Z,3.83
2019-02-03T22:57:02.261Z,3.50
2019-02-03T22:59:35.878Z,4.15
2019-02-03T23:02:09.451Z,2.90
2019-02-03T23:04:43.791Z,3.10
2019-02-03T23:07:17.378Z,4.45
2019-02-03T23:09:51.681Z,4.50
2019-02-03T23:12:25.499Z,3.42
2019-02-03T23:14:59.850Z,4.20
2019-02-03T23:17:34.344Z,3.90
2019-02-03T23:20:08.803Z,3.85
2019-02-03T23:22:42.355Z,3.97
2019-02-03T23:25:16.187Z,3.92
2019-02-03T23:27:49.758Z,3.80
2019-02-03T23:30:23.350Z,3.37
2019-02-03T23:32:56.979Z,3.25
2019-02-03T23:35:30.654Z,3.37
2019-02-03T23:38:04.356Z,3.95
2019-02-03T23:40:38.032Z,4.03
2019-02-03T23:43:11.659Z,3.50
2019-02-03T23:45:46.023Z,3.22
2019-02-03T23:48:20.573Z,3.78
2019-02-03T23:50:55.806Z,3.45
2019-02-03T23:53:29.396Z,3.60
2019-02-03T23:56:03.074Z,4.10
2019-02-03T23:58:36.809Z,5.22
